tititudorancea.com
Station Historical Data
Daily Summary for September 29, 2018 Units:  Metric    English   Both
« Previous Day
Next Day »
Daily Weekly Monthly Yearly Custom
  High: Low: Average:
Temperature: -17.8 °C 3.6 °C 7.8 °C
Dew Point: -17.8 °C 0.6 °C 2.9 °C
Humidity: Humidity % 53 % 72 %
Wind Speed: 0 km/h 0 km/h 13 km/h
Wind Gust: 0 km/h - -
Wind:- - WSW
Pressure: 0 hPa 1021.9 hPa -
Precipitation: 0 mm    
Historical Graphs
 
 
Ararat weather Find more about Weather in Ararat, AU


 



 


Tabular Data for September 29, 2018
Time Temperature Dew Point Pressure Wind Wind Speed Wind Gust Humidity Rainfall Rate (Hourly)
-17.8 °C -17.8 °C 0 hPa Calm     Humidity % 0 mm
00:04 4.6 °C 1.4 °C 1021.9 hPa WSW 16.7 km/h 8.2 km/h 80 % 0 mm
00:09 4.6 °C 1.4 °C 1021.9 hPa WSW 13 km/h 10.1 km/h 80 % 0 mm
00:14 4.6 °C 1.4 °C 1021.9 hPa WSW 16.7 km/h 10.1 km/h 80 % 0 mm
00:19 4.6 °C 1.4 °C 1021.9 hPa WSW 20.4 km/h 8.5 km/h 80 % 0 mm
00:24 4.7 °C 1.5 °C 1021.9 hPa WSW 14.8 km/h 9.3 km/h 80 % 0 mm
00:29 4.7 °C 1.5 °C 1021.9 hPa WSW 13 km/h 8.5 km/h 80 % 0 mm
00:34 4.6 °C 1.3 °C 1021.9 hPa WSW 17.7 km/h 12.4 km/h 79 % 0 mm
00:39 4.7 °C 1.4 °C 1021.9 hPa WSW 20.4 km/h 13.8 km/h 79 % 0 mm
00:44 4.7 °C 1.2 °C 1021.9 hPa WSW 13 km/h 10.9 km/h 78 % 0 mm
00:49 4.8 °C 1.3 °C 1021.9 hPa WSW 22.2 km/h 12.7 km/h 78 % 0 mm
00:54 4.8 °C 1.3 °C 1021.9 hPa SW 16.7 km/h 9 km/h 78 % 0 mm
00:59 4.7 °C 1.1 °C 1022.2 hPa SW 14.8 km/h 10.6 km/h 77 % 0 mm
01:04 4.7 °C 1 °C 1021.9 hPa SW 16.7 km/h 10.9 km/h 77 % 0 mm
01:09 4.7 °C 1 °C 1021.9 hPa WSW 13 km/h 9 km/h 77 % 0 mm
01:14 4.7 °C 1 °C 1021.9 hPa North 16.7 km/h 10.3 km/h 77 % 0 mm
01:19 4.7 °C 1 °C 1021.9 hPa North 14.8 km/h 7.7 km/h 77 % 0 mm
01:24 4.7 °C 1.2 °C 1021.9 hPa SW 14.8 km/h 8.5 km/h 78 % 0 mm
01:29 4.7 °C 1.1 °C 1021.9 hPa WSW 11.1 km/h 7.2 km/h 77 % 0 mm
01:34 4.8 °C 1.1 °C 1021.9 hPa WSW 22.2 km/h 15.3 km/h 77 % 0 mm
01:39 4.9 °C 1.2 °C 1021.9 hPa North 14.8 km/h 8.9 km/h 77 % 0 mm
01:44 4.8 °C 1.1 °C 1021.9 hPa North 13 km/h 9 km/h 77 % 0 mm
01:49 4.8 °C 1.1 °C 1021.9 hPa SW 22.2 km/h 11.7 km/h 77 % 0 mm
01:54 4.8 °C 1.1 °C 1021.9 hPa WSW 20.4 km/h 13.7 km/h 77 % 0 mm
01:59 4.8 °C 1.1 °C 1021.9 hPa WSW 16.7 km/h 10 km/h 77 % 0 mm
02:04 4.7 °C 1 °C 1021.9 hPa WSW 16.7 km/h 10.1 km/h 77 % 0 mm
02:09 4.6 °C 0.9 °C 1021.9 hPa WSW 24.1 km/h 14.3 km/h 77 % 0 mm
02:14 4.7 °C 1 °C 1021.9 hPa North 25.9 km/h 16.1 km/h 77 % 0 mm
02:19 4.6 °C 0.9 °C 1021.9 hPa WSW 31.5 km/h 18.2 km/h 77 % 0 mm
02:24 4.5 °C 0.8 °C 1021.9 hPa SW 20.9 km/h 11.7 km/h 77 % 0 mm
02:29 4.4 °C 0.8 °C 1021.9 hPa SW 24.1 km/h 14.3 km/h 77 % 0 mm
02:34 4.3 °C 0.8 °C 1021.9 hPa SW 31.5 km/h 14.6 km/h 78 % 0 mm
02:39 4.3 °C 0.8 °C 1021.9 hPa SW 24.1 km/h 12.2 km/h 78 % 0 mm
02:44 4.2 °C 0.8 °C 1021.9 hPa WSW 20.4 km/h 16.1 km/h 79 % 0 mm
02:49 4.1 °C 0.8 °C 1021.9 hPa SW 20.4 km/h 12.6 km/h 79 % 0 mm
02:54 4.1 °C 0.8 °C 1021.9 hPa SW 25.9 km/h 14.5 km/h 79 % 0 mm
02:59 4.1 °C 0.8 °C 1021.9 hPa SW 16.7 km/h 10.6 km/h 79 % 0 mm
03:04 4 °C 0.8 °C 1021.9 hPa SW 13 km/h 6.6 km/h 80 % 0 mm
03:09 3.9 °C 0.8 °C 1021.9 hPa WSW 14.8 km/h 9.2 km/h 80 % 0 mm
03:14 4 °C 0.8 °C 1021.9 hPa SW 16.7 km/h 10.5 km/h 80 % 0 mm
03:19 4 °C 0.8 °C 1021.9 hPa WSW 13 km/h 10.3 km/h 80 % 0 mm
03:24 4.1 °C 0.9 °C 1021.9 hPa SW 18.5 km/h 10.9 km/h 80 % 0 mm
03:29 4.1 °C 0.9 °C 1021.9 hPa SW 16.7 km/h 7.7 km/h 80 % 0 mm
03:34 4.1 °C 0.9 °C 1022.2 hPa SW 11.1 km/h 9.7 km/h 80 % 0 mm
03:39 4.1 °C 0.9 °C 1022.2 hPa WSW 18.5 km/h 9.5 km/h 80 % 0 mm
03:44 4.1 °C 0.9 °C 1022.6 hPa North 22.2 km/h 15.1 km/h 80 % 0 mm
03:49 4.1 °C 1.2 °C 1022.6 hPa North 18.5 km/h 8.7 km/h 81 % 0 mm
03:54 4.1 °C 1.1 °C 1022.6 hPa SW 16.7 km/h 12.6 km/h 81 % 0 mm
03:59 4.1 °C 1.2 °C 1022.6 hPa SW 18.5 km/h 9.5 km/h 81 % 0 mm
04:04 4.1 °C 1.1 °C 1022.6 hPa SW 14.8 km/h 9.5 km/h 81 % 0 mm
04:09 3.9 °C 1 °C 1022.6 hPa SW 14.8 km/h 8.2 km/h 81 % 0 mm
04:14 3.9 °C 1.2 °C 1022.6 hPa SW 16.7 km/h 7.4 km/h 82 % 0 mm
04:19 3.8 °C 1 °C 1022.6 hPa SW 8 km/h 4.5 km/h 82 % 0 mm
04:24 3.7 °C 0.9 °C 1022.9 hPa North 16.1 km/h 10.9 km/h 82 % 0 mm
04:29 3.6 °C 1 °C 1022.6 hPa SW 18.5 km/h 10.9 km/h 83 % 0 mm
04:34 3.6 °C 1 °C 1022.9 hPa SW 16.7 km/h 7.9 km/h 83 % 0 mm
04:39 3.7 °C 1.1 °C 1022.9 hPa SW 13 km/h 6.6 km/h 83 % 0 mm
04:44 3.7 °C 1.1 °C 1022.9 hPa SW 14.8 km/h 7.4 km/h 83 % 0 mm
04:49 3.7 °C 1.1 °C 1022.9 hPa North 18.5 km/h 9.3 km/h 83 % 0 mm
04:54 3.8 °C 1.2 °C 1022.9 hPa SW 18.5 km/h 9.2 km/h 83 % 0 mm
04:59 3.9 °C 1.3 °C 1023.2 hPa SW 16.7 km/h 7.7 km/h 83 % 0 mm
05:04 3.9 °C 1.2 °C 1023.2 hPa SW 16.7 km/h 7.9 km/h 82 % 0 mm
05:09 3.9 °C 1.2 °C 1023.2 hPa SW 14.8 km/h 7.7 km/h 82 % 0 mm
05:14 3.9 °C 1.3 °C 1023.2 hPa SW 11.1 km/h 8.4 km/h 83 % 0 mm
05:19 3.9 °C 1.3 °C 1023.2 hPa SW 16.7 km/h 11.1 km/h 83 % 0 mm
05:24 4.1 °C 1.5 °C 1023.2 hPa SW 16.7 km/h 8.4 km/h 83 % 0 mm
05:29 4.2 °C 1.4 °C 1023.2 hPa SW 16.7 km/h 7.9 km/h 82 % 0 mm
05:34 4.2 °C 1.4 °C 1023.6 hPa SW 20.4 km/h 9.3 km/h 82 % 0 mm
05:39 4.3 °C 1.5 °C 1023.6 hPa SW 18.5 km/h 8.9 km/h 82 % 0 mm
05:44 4.4 °C 1.6 °C 1023.6 hPa SW 18.5 km/h 10.5 km/h 82 % 0 mm
05:49 4.7 °C 1.7 °C 1023.6 hPa North 18.5 km/h 12.9 km/h 81 % 0 mm
05:54 4.7 °C 1.5 °C 1023.6 hPa SW 16.7 km/h 9.2 km/h 80 % 0 mm
05:59 4.6 °C 1.4 °C 1023.9 hPa SW 12.9 km/h 14 km/h 80 % 0 mm
06:04 4.6 °C 1.4 °C 1023.9 hPa North 14.8 km/h 11.7 km/h 80 % 0 mm
06:09 4.3 °C 1 °C 1023.9 hPa SW 5.6 km/h 0.5 km/h 79 % 0 mm
06:14 3.9 °C 0.6 °C 1023.9 hPa SW 1.9 km/h 0.6 km/h 79 % 0 mm
06:19 3.8 °C 1 °C 1024.3 hPa SW 7.4 km/h 4.3 km/h 82 % 0 mm
06:24 3.8 °C 1.1 °C 1024.3 hPa SW 5.6 km/h 5.6 km/h 82 % 0 mm
06:29 3.9 °C 1.2 °C 1024.3 hPa SW 11.3 km/h 3.2 km/h 82 % 0 mm
06:34 4.1 °C 1.3 °C 1024.6 hPa SW 9.3 km/h 5 km/h 82 % 0 mm
06:39 4.1 °C 1.2 °C 1024.6 hPa North 7.4 km/h 3.7 km/h 81 % 0 mm
06:44 4.2 °C 1.4 °C 1024.6 hPa SW 9.3 km/h 6.3 km/h 82 % 0 mm
06:49 4.5 °C 1.5 °C 1024.6 hPa SW 5.6 km/h 5.1 km/h 81 % 0 mm
06:54 4.7 °C 1.6 °C 1024.6 hPa SW 5.6 km/h 0.3 km/h 80 % 0 mm
06:59 4.8 °C 1.7 °C 1024.6 hPa SW 4.8 km/h 3.5 km/h 80 % 0 mm
07:04 4.5 °C 1.2 °C 1024.6 hPa SW 5.6 km/h 2.6 km/h 79 % 0 mm
07:09 4.3 °C 1.3 °C 1024.9 hPa SW 5.6 km/h 4.5 km/h 81 % 0 mm
07:14 4.4 °C 1.4 °C 1024.9 hPa SW 5.6 km/h 0.8 km/h 81 % 0 mm
07:19 4.6 °C 1.8 °C 1024.9 hPa SW 3.7 km/h 1.1 km/h 82 % 0 mm
07:24 4.9 °C 1.9 °C 1024.9 hPa SW 3.7 km/h 1.8 km/h 81 % 0 mm
07:29 5.3 °C 2.3 °C 1024.9 hPa SW 1.9 km/h 0.8 km/h 81 % 0 mm
07:34 5.7 °C 2.5 °C 1025.3 hPa North 3.7 km/h 1.4 km/h 80 % 0 mm
07:39 5.8 °C 2.4 °C 1025.3 hPa North 4.8 km/h 2.1 km/h 79 % 0 mm
07:44 5.9 °C 2.4 °C 1025.3 hPa SW 5.6 km/h 4 km/h 78 % 0 mm
07:49 5.9 °C 2.4 °C 1025.3 hPa SW 8 km/h 6.6 km/h 78 % 0 mm
07:54 6.1 °C 2.2 °C 1025.6 hPa SW 16.7 km/h 11.4 km/h 76 % 0 mm
07:59 6.3 °C 2.3 °C 1025.6 hPa SW 16.1 km/h 8.9 km/h 76 % 0 mm
08:04 6.4 °C 2.3 °C 1025.6 hPa SW 11.1 km/h 6 km/h 75 % 0 mm
08:09 6.5 °C 2.2 °C 1025.6 hPa North 18.5 km/h 14.5 km/h 74 % 0 mm
08:14 6.6 °C 2.5 °C 1026 hPa SW 14.5 km/h 7.6 km/h 75 % 0 mm
08:19 6.7 °C 2.4 °C 1026 hPa WSW 16.7 km/h 12.2 km/h 74 % 0 mm
08:24 6.8 °C 2.7 °C 1026 hPa SW 9.3 km/h 6.3 km/h 75 % 0 mm
08:29 7.2 °C 3.1 °C 1026 hPa WSW 14.8 km/h 9.3 km/h 75 % 0 mm
08:34 7.4 °C 3.1 °C 1026 hPa SW 16.7 km/h 10.3 km/h 74 % 0 mm
08:39 7.6 °C 2.8 °C 1026.3 hPa SSW 16.7 km/h 12.2 km/h 72 % 0 mm
08:44 7.6 °C 2.7 °C 1026.3 hPa SW 16.7 km/h 16.7 km/h 71 % 0 mm
08:49 7.6 °C 2.7 °C 1026.3 hPa SW 12.9 km/h 9.8 km/h 71 % 0 mm
08:54 7.8 °C 2.8 °C 1026.3 hPa SSW 17.7 km/h 15.8 km/h 71 % 0 mm
08:59 7.9 °C 3 °C 1026.3 hPa SW 16.7 km/h 15.3 km/h 71 % 0 mm
09:04 8.1 °C 3.3 °C 1026.6 hPa SW 20.4 km/h 12.2 km/h 72 % 0 mm
09:09 8.2 °C 3.2 °C 1026.6 hPa SW 14.8 km/h 9.8 km/h 71 % 0 mm
09:14 8.4 °C 3.8 °C 1026.6 hPa SW 22.5 km/h 11.4 km/h 73 % 0 mm
09:19 8.4 °C 3 °C 1026.6 hPa SSW 20.4 km/h 15.8 km/h 69 % 0 mm
09:24 8.4 °C 3 °C 1026.6 hPa North 18.5 km/h 11.3 km/h 69 % 0 mm
09:29 8.4 °C 2.8 °C 1026.6 hPa SW 31.5 km/h 10 km/h 68 % 0 mm
09:34 8.4 °C 2.9 °C 1027 hPa SW 20.4 km/h 14 km/h 68 % 0 mm
09:39 8.5 °C 3.1 °C 1027 hPa SW 22.2 km/h 14.5 km/h 69 % 0 mm
09:44 8.7 °C 2.9 °C 1027 hPa SSW 25.9 km/h 17.9 km/h 67 % 0 mm
09:49 9 °C 3.2 °C 1027 hPa SSW 22.5 km/h 18.2 km/h 67 % 0 mm
09:54 9.1 °C 3.3 °C 1027 hPa North 22.2 km/h 13.7 km/h 67 % 0 mm
09:59 9.1 °C 2.8 °C 1027 hPa South 29.6 km/h 17.9 km/h 65 % 0 mm
10:04 9.1 °C 3.1 °C 1027 hPa SW 24.1 km/h 16.6 km/h 66 % 0 mm
10:09 9.4 °C 3.8 °C 1027 hPa SSW 18.5 km/h 19.2 km/h 68 % 0 mm
10:14 9.2 °C 3.4 °C 1027 hPa North 18.5 km/h 14.2 km/h 67 % 0 mm
10:19 9.1 °C 3.1 °C 1027 hPa SSW 20.4 km/h 14.3 km/h 66 % 0 mm
10:24 9.2 °C 2.8 °C 1027 hPa SW 31.5 km/h 20.4 km/h 64 % 0 mm
10:29 9.1 °C 3.1 °C 1027.3 hPa South 14.8 km/h 12.9 km/h 66 % 0 mm
10:34 8.9 °C 2.7 °C 1027 hPa SSW 25.9 km/h 15.8 km/h 65 % 0 mm
10:39 8.9 °C 2.7 °C 1027 hPa SSW 20.4 km/h 16.7 km/h 65 % 0 mm
10:44 9 °C 2.6 °C 1027.3 hPa SW 24.1 km/h 15.3 km/h 64 % 0 mm
10:49 9 °C 2.3 °C 1027 hPa North 22.2 km/h 11.4 km/h 63 % 0 mm
10:54 9.2 °C 2.5 °C 1027.3 hPa SW 20.4 km/h 16.3 km/h 63 % 0 mm
10:59 9.2 °C 2.6 °C 1027 hPa SW 18.5 km/h 11.6 km/h 63 % 0 mm
11:04 9.3 °C 2.6 °C 1027 hPa SSW 18.5 km/h 13.5 km/h 63 % 0 mm
11:09 9.4 °C 2.9 °C 1027 hPa SSW 16.7 km/h 9.8 km/h 64 % 0 mm
11:14 9.7 °C 3.2 °C 1027 hPa SW 19.3 km/h 8.5 km/h 64 % 0 mm
11:19 9.7 °C 2.8 °C 1027 hPa SSW 18.5 km/h 9.5 km/h 62 % 0 mm
11:24 9.6 °C 2.7 °C 1027 hPa SSW 11.3 km/h 9.5 km/h 62 % 0 mm
11:29 9.8 °C 2.4 °C 1026.6 hPa WSW 17.7 km/h 13.5 km/h 60 % 0 mm
11:34 9.9 °C 2.8 °C 1026.6 hPa SW 11.1 km/h 5.3 km/h 61 % 0 mm
11:39 10.1 °C 2.4 °C 1026.6 hPa SSW 20.4 km/h 14.5 km/h 59 % 0 mm
11:44 9.8 °C 2.2 °C 1026.6 hPa SW 13 km/h 11.1 km/h 59 % 0 mm
11:49 9.9 °C 2 °C 1026.6 hPa WSW 16.7 km/h 9.8 km/h 58 % 0 mm
11:54 10.2 °C 1.3 °C 1026.3 hPa WSW 9.3 km/h 4.2 km/h 54 % 0 mm
11:59 11.1 °C 2.6 °C 1026.6 hPa WSW 14.8 km/h 9.3 km/h 56 % 0 mm
12:04 10.8 °C 1.8 °C 1026.3 hPa SW 18.5 km/h 11.9 km/h 54 % 0 mm
12:09 10.6 °C 1.9 °C 1026.6 hPa SW 22.2 km/h 14.3 km/h 55 % 0 mm
12:14 10.8 °C 2.4 °C 1026.3 hPa SSW 13 km/h 9.7 km/h 56 % 0 mm
12:19 11.1 °C 2.2 °C 1026.3 hPa WSW 18.5 km/h 14.8 km/h 54 % 0 mm
12:24 11.2 °C 2.2 °C 1026.3 hPa SW 18.5 km/h 11.3 km/h 54 % 0 mm
12:29 11.5 °C 3 °C 1026.3 hPa WSW 20.4 km/h 13.5 km/h 56 % 0 mm
12:34 11.7 °C 2.9 °C 1026.3 hPa North 17.7 km/h 16.7 km/h 55 % 0 mm
12:39 11.2 °C 2.8 °C 1026.3 hPa SSW 24.1 km/h 18 km/h 56 % 0 mm
12:44 11.4 °C 2.2 °C 1026.3 hPa SW 16.7 km/h 16.3 km/h 53 % 0 mm
12:49 12 °C 2.9 °C 1026.3 hPa SSW 17.7 km/h 13 km/h 54 % 0 mm
12:54 11.5 °C 2.5 °C 1026.3 hPa SSW 24.1 km/h 14.8 km/h 54 % 0 mm
12:59 10.9 °C 2.5 °C 1026.3 hPa SSW 24.1 km/h 13 km/h 56 % 0 mm
13:04 10.9 °C 2.2 °C 1026.3 hPa SSW 20.4 km/h 10.8 km/h 55 % 0 mm
13:09 11.2 °C 2.8 °C 1026.3 hPa SSW 11.3 km/h 10 km/h 56 % 0 mm
13:14 11.3 °C 2.9 °C 1026.3 hPa SW 16.7 km/h 10.6 km/h 56 % 0 mm
13:19 11.2 °C 3.5 °C 1026.3 hPa SW 20.4 km/h 13.5 km/h 59 % 0 mm
13:24 11.1 °C 3.3 °C 1026.6 hPa SSW 27.8 km/h 21.9 km/h 59 % 0 mm
13:29 11.1 °C 3.4 °C 1026.3 hPa SW 24.1 km/h 15.1 km/h 59 % 0 mm
13:34 11.1 °C 2.9 °C 1026.6 hPa SW 18.5 km/h 14.8 km/h 57 % 0 mm
13:39 11.1 °C 2.7 °C 1026.6 hPa WSW 20.9 km/h 17.1 km/h 56 % 0 mm
13:44 11.1 °C 2.4 °C 1026.6 hPa SSW 24.1 km/h 17.9 km/h 55 % 0 mm
13:49 11.7 °C 3.2 °C 1026.3 hPa SSW 20.4 km/h 11.6 km/h 56 % 0 mm
13:54 11.9 °C 2.9 °C 1026.6 hPa SW 24.1 km/h 15.8 km/h 54 % 0 mm
13:59 11.5 °C 3 °C 1026.6 hPa SSW 18.5 km/h 16.3 km/h 56 % 0 mm
14:04 11.3 °C 3.3 °C 1026.6 hPa SW 18.5 km/h 19.3 km/h 58 % 0 mm
14:09 11.2 °C 3.5 °C 1026.6 hPa SSW 20.4 km/h 15 km/h 59 % 0 mm
14:14 11.3 °C 3.6 °C 1026.6 hPa SW 16.7 km/h 11.7 km/h 59 % 0 mm
14:19 11.3 °C 3.6 °C 1026.6 hPa SW 18.5 km/h 12.9 km/h 59 % 0 mm
14:24 11.2 °C 3.3 °C 1026.6 hPa SSW 24.1 km/h 21.1 km/h 58 % 0 mm
14:29 11.1 °C 3.4 °C 1026.6 hPa SW 20.9 km/h 11.3 km/h 59 % 0 mm
14:34 11.2 °C 3.9 °C 1026.6 hPa SSW 29.6 km/h 12.2 km/h 61 % 0 mm
14:39 10.8 °C 3.8 °C 1026.6 hPa SSW 24.1 km/h 17.9 km/h 62 % 0 mm
14:44 10.8 °C 4.1 °C 1026.6 hPa SW 18.5 km/h 15.1 km/h 63 % 0 mm
14:49 10.8 °C 3.6 °C 1026.6 hPa SSW 22.2 km/h 16.3 km/h 61 % 0 mm
14:54 10.9 °C 4.1 °C 1026.6 hPa SW 18.5 km/h 15.4 km/h 63 % 0 mm
14:59 11.1 °C 3.6 °C 1026.6 hPa SSW 24.1 km/h 14.2 km/h 60 % 0 mm
15:04 11.2 °C 3.2 °C 1026.6 hPa SW 18.5 km/h 15 km/h 58 % 0 mm
15:09 11.2 °C 3.7 °C 1026.6 hPa North 20.9 km/h 15.6 km/h 60 % 0 mm
15:14 11.1 °C 3.6 °C 1026.3 hPa WSW 24.1 km/h 17.2 km/h 60 % 0 mm
15:19 11.3 °C 3.8 °C 1026.6 hPa SSW 20.4 km/h 9.2 km/h 60 % 0 mm
15:24 11.4 °C 3.7 °C 1026.6 hPa SSW 16.7 km/h 12.2 km/h 59 % 0 mm
15:29 11.2 °C 3 °C 1026.6 hPa SSW 22.2 km/h 15.6 km/h 57 % 0 mm
15:34 11.2 °C 3.2 °C 1026.6 hPa SSW 22.2 km/h 9 km/h 58 % 0 mm
15:39 11.3 °C 3.1 °C 1026.6 hPa SSW 18.5 km/h 15.9 km/h 57 % 0 mm
15:44 11.2 °C 3.3 °C 1026.6 hPa North 14.8 km/h 8 km/h 58 % 0 mm
15:49 11.2 °C 3.2 °C 1026.6 hPa SW 20.4 km/h 16.6 km/h 58 % 0 mm
15:54 11 °C 3.3 °C 1026.6 hPa SW 12.9 km/h 7.1 km/h 59 % 0 mm
15:59 11 °C 3.3 °C 1026.6 hPa SSW 18.5 km/h 11.1 km/h 59 % 0 mm
16:04 10.9 °C 3.2 °C 1026.6 hPa SW 16.7 km/h 11.4 km/h 59 % 0 mm
16:09 10.9 °C 3.2 °C 1026.6 hPa SW 18.5 km/h 9.7 km/h 59 % 0 mm
16:14 10.9 °C 3.7 °C 1026.6 hPa SW 13 km/h 11.9 km/h 61 % 0 mm
16:19 10.9 °C 3.7 °C 1026.6 hPa SW 9.3 km/h 7.2 km/h 61 % 0 mm
16:24 10.9 °C 3.5 °C 1027 hPa SW 14.8 km/h 10.8 km/h 60 % 0 mm
16:29 10.9 °C 3.5 °C 1027 hPa SSW 16.7 km/h 14.5 km/h 60 % 0 mm
16:34 10.8 °C 3.4 °C 1027 hPa SSW 13 km/h 9.3 km/h 60 % 0 mm
16:39 10.8 °C 3.4 °C 1027 hPa North 9.3 km/h 4.2 km/h 60 % 0 mm
16:44 10.9 °C 3.4 °C 1027 hPa SSW 14.8 km/h 7.2 km/h 60 % 0 mm
16:49 10.8 °C 3.4 °C 1027 hPa SSW 11.3 km/h 9.3 km/h 60 % 0 mm
16:54 10.9 °C 3.4 °C 1027 hPa SSW 14.8 km/h 9.2 km/h 60 % 0 mm
16:59 10.8 °C 3.4 °C 1027.3 hPa SSW 14.8 km/h 12.7 km/h 60 % 0 mm
17:04 10.8 °C 3.3 °C 1027.3 hPa SW 14.8 km/h 12.7 km/h 60 % 0 mm
17:09 10.8 °C 3.6 °C 1027.3 hPa SSW 13 km/h 9 km/h 61 % 0 mm
17:14 10.7 °C 3.5 °C 1027.3 hPa SSW 17.7 km/h 12.1 km/h 61 % 0 mm
17:19 10.7 °C 3.7 °C 1027.3 hPa SSW 14.8 km/h 11.6 km/h 62 % 0 mm
17:24 10.6 °C 3.6 °C 1027.3 hPa SSW 14.8 km/h 10 km/h 62 % 0 mm
17:29 10.6 °C 3.8 °C 1027.7 hPa SSW 9.7 km/h 5.6 km/h 63 % 0 mm
17:34 10.6 °C 3.8 °C 1027.7 hPa SSW 13 km/h 9.2 km/h 63 % 0 mm
17:39 10.5 °C 3.7 °C 1027.7 hPa SSW 11.1 km/h 7.6 km/h 63 % 0 mm
17:44 10.5 °C 3.9 °C 1027.7 hPa North 7.4 km/h 4 km/h 64 % 0 mm
17:49 10.4 °C 3.9 °C 1027.7 hPa SSW 13 km/h 8.9 km/h 64 % 0 mm
17:54 10.4 °C 3.9 °C 1027.7 hPa SSW 5.6 km/h 4.2 km/h 64 % 0 mm
17:59 10.3 °C 4.1 °C 1027.7 hPa SSW 7.4 km/h 7.4 km/h 65 % 0 mm
18:04 10.3 °C 4 °C 1028 hPa SSW 5.6 km/h 4.3 km/h 65 % 0 mm
18:09 10.3 °C 4.2 °C 1028 hPa SSW 11.1 km/h 6.9 km/h 66 % 0 mm
18:14 10.3 °C 4.2 °C 1028 hPa SSW 6.4 km/h 2.9 km/h 66 % 0 mm
18:19 10.2 °C 4.2 °C 1028 hPa SSW 5.6 km/h 1.3 km/h 66 % 0 mm
18:24 10.2 °C 4.3 °C 1028 hPa SSW 7.4 km/h 4.2 km/h 67 % 0 mm
18:29 10.1 °C 4.3 °C 1028 hPa SSW 7.4 km/h 3.1 km/h 67 % 0 mm
18:34 10.1 °C 4.4 °C 1028 hPa SSW 6.4 km/h 5.3 km/h 68 % 0 mm
18:39 10 °C 4.3 °C 1028 hPa SSW 5.6 km/h 4 km/h 68 % 0 mm
18:44 10 °C 4.6 °C 1028 hPa SSW 6.4 km/h 5 km/h 69 % 0 mm
18:49 9.9 °C 4.5 °C 1028 hPa SSW 6.4 km/h 3.5 km/h 69 % 0 mm
18:54 9.9 °C 4.4 °C 1028 hPa SSW 5.6 km/h 5 km/h 69 % 0 mm
18:59 9.9 °C 4.7 °C 1028 hPa SSW 7.4 km/h 3.4 km/h 70 % 0 mm
19:04 9.8 °C 4.6 °C 1028 hPa SSW 5.6 km/h 4 km/h 70 % 0 mm
19:09 9.8 °C 4.8 °C 1028.3 hPa SSW 8 km/h 7.2 km/h 71 % 0 mm
19:14 9.8 °C 4.8 °C 1028.3 hPa SSW 5.6 km/h 3.1 km/h 71 % 0 mm
19:19 9.7 °C 4.7 °C 1028.3 hPa SSW 7.4 km/h 5 km/h 71 % 0 mm
19:24 9.7 °C 4.8 °C 1028.3 hPa SSW 5.6 km/h 3.1 km/h 72 % 0 mm
19:29 9.6 °C 4.8 °C 1028.3 hPa SSW 5.6 km/h 4.5 km/h 72 % 0 mm
19:34 9.6 °C 4.8 °C 1028.7 hPa North 12.9 km/h 9.2 km/h 72 % 0 mm
19:39 9.6 °C 4.8 °C 1028.7 hPa SSW 5.6 km/h 3.1 km/h 72 % 0 mm
19:44 9.6 °C 4.9 °C 1028.7 hPa SSW 3.7 km/h 3.1 km/h 73 % 0 mm
19:49 9.5 °C 4.9 °C 1028.7 hPa SSW 4.8 km/h 2.9 km/h 73 % 0 mm
19:54 9.4 °C 5.1 °C 1028.7 hPa Calm     74 % 0 mm
19:59 9.4 °C 5 °C 1028.7 hPa North 3.7 km/h 2.6 km/h 74 % 0 mm
20:04 9.3 °C 4.9 °C 1029 hPa SSW 3.7 km/h 1.3 km/h 74 % 0 mm
20:09 9.3 °C 5.1 °C 1029 hPa Calm     75 % 0 mm
20:14 9.3 °C 5.1 °C 1029 hPa SSW 3.7 km/h 2.3 km/h 75 % 0 mm
20:19 9.2 °C 5 °C 1029 hPa Calm     75 % 0 mm
20:24 9.2 °C 5.2 °C 1029 hPa Calm     76 % 0 mm
20:29 9.2 °C 5.2 °C 1029 hPa Calm     76 % 0 mm
20:34 9.1 °C 5.1 °C 1029 hPa Calm     76 % 0 mm
20:39 8.9 °C 4.9 °C 1029 hPa Calm     76 % 0 mm
20:44 8.9 °C 5.1 °C 1029 hPa Calm     77 % 0 mm
20:49 8.8 °C 5 °C 1029 hPa Calm     77 % 0 mm
20:54 8.8 °C 5.3 °C 1029.3 hPa SSW 3.7 km/h 0.5 km/h 79 % 0 mm
20:59 8.7 °C 5.3 °C 1029 hPa Calm     79 % 0 mm
21:04 8.7 °C 5.2 °C 1029 hPa Calm     79 % 0 mm
21:09 8.6 °C 5.3 °C 1029 hPa Calm     80 % 0 mm
21:14 8.6 °C 5.3 °C 1029 hPa Calm     80 % 0 mm
21:19 8.4 °C 5.2 °C 1029 hPa Calm     80 % 0 mm
21:24 8.4 °C 5.3 °C 1029 hPa Calm     81 % 0 mm
21:29 8.4 °C 5.3 °C 1029.3 hPa Calm     81 % 0 mm
21:34 8.4 °C 5.3 °C 1029.3 hPa Calm     81 % 0 mm
21:39 8.3 °C 5.3 °C 1029.3 hPa Calm     81 % 0 mm
21:44 8.3 °C 5.4 °C 1029.3 hPa Calm     82 % 0 mm
21:49 8.3 °C 5.4 °C 1029.3 hPa Calm     82 % 0 mm
21:54 8.2 °C 5.3 °C 1029.3 hPa Calm     82 % 0 mm
21:59 8.2 °C 5.3 °C 1029.3 hPa Calm     82 % 0 mm
22:04 8.1 °C 5.4 °C 1029.3 hPa Calm     83 % 0 mm
22:09 8.1 °C 5.3 °C 1029.3 hPa Calm     83 % 0 mm
22:14 8 °C 5.3 °C 1029.3 hPa Calm     83 % 0 mm
22:19 8 °C 5.4 °C 1029.3 hPa Calm     84 % 0 mm
22:24 8 °C 5.4 °C 1029.3 hPa Calm     84 % 0 mm
22:29 7.9 °C 5.4 °C 1029 hPa Calm     84 % 0 mm
22:34 7.9 °C 5.4 °C 1029.3 hPa Calm     84 % 0 mm
22:39 7.9 °C 5.3 °C 1029.3 hPa Calm     84 % 0 mm
22:44 7.8 °C 5.4 °C 1029.3 hPa Calm     85 % 0 mm
22:49 7.8 °C 5.4 °C 1029.3 hPa Calm     85 % 0 mm
22:54 7.8 °C 5.4 °C 1029.3 hPa Calm     85 % 0 mm
22:59 7.8 °C 5.4 °C 1029.3 hPa Calm     85 % 0 mm
23:04 7.8 °C 5.4 °C 1029.3 hPa Calm     85 % 0 mm
23:09 7.8 °C 5.4 °C 1029.3 hPa Calm     85 % 0 mm
23:14 7.7 °C 5.3 °C 1029.3 hPa Calm     85 % 0 mm
23:19 7.7 °C 5.5 °C 1029.3 hPa Calm     86 % 0 mm
23:24 7.7 °C 5.5 °C 1029.3 hPa Calm     86 % 0 mm
23:29 7.7 °C 5.5 °C 1029.3 hPa Calm     86 % 0 mm
23:34 7.6 °C 5.4 °C 1029.7 hPa Calm     86 % 0 mm
23:39 7.5 °C 5.2 °C 1029.7 hPa Calm     85 % 0 mm
23:44 7.5 °C 5.3 °C 1029.7 hPa Calm     86 % 0 mm
23:49 7.4 °C 5.2 °C 1029.7 hPa Calm     86 % 0 mm
23:54 7.3 °C 5.1 °C 1029.7 hPa Calm     86 % 0 mm
23:59 7.1 °C 4.8 °C 1029.7 hPa Calm     85 % 0 mm
Ararat Weather
Compliments of Weather Underground - 2.25 mb
Click here to send mail.


ABOUT

Live weather data from Ararat, Victoria, Australia, 3377
Data uploaded from Cumulus every 5 minutes to Weather Underground.
This site then downloads the raw data for formatting and display.
Metric and imperial data can be displayed. Graphs and historical data available.
Includes Sun and Moon times and rain image live from BOM.

Check out Ararat Weather on Facebook, Twitter and Google +

Help support ongoing costs by checking out the ads





Follow @AraratWeather